createdAt,value
2022-09-30T00:00:41.699Z,6.21
2022-09-30T00:03:38.492Z,6.16
2022-09-30T00:06:26.068Z,5.99
2022-09-30T00:09:13.141Z,6.14
2022-09-30T00:11:58.852Z,5.98
2022-09-30T00:14:44.557Z,6.09
2022-09-30T00:17:30.360Z,6.03
2022-09-30T00:20:15.752Z,6.15
2022-09-30T00:23:01.640Z,6.18
2022-09-30T00:25:48.246Z,6.25
2022-09-30T00:28:34.386Z,6.21
2022-09-30T00:31:21.379Z,6.38
2022-09-30T00:34:07.635Z,6.37
2022-09-30T00:36:57.872Z,6.43
2022-09-30T00:39:43.933Z,6.25
2022-09-30T00:42:30.725Z,6.35
2022-09-30T00:45:18.102Z,6.53
2022-09-30T00:48:08.745Z,6.58
2022-09-30T00:50:55.622Z,6.56
2022-09-30T00:53:51.686Z,6.56
2022-09-30T00:56:40.845Z,6.56
2022-09-30T00:59:31.347Z,6.68
2022-09-30T01:02:17.570Z,6.65
2022-09-30T01:05:03.624Z,6.71
2022-09-30T01:07:49.557Z,6.75
2022-09-30T01:10:35.548Z,6.72
2022-09-30T01:13:23.746Z,6.69
2022-09-30T01:16:25.166Z,6.71
2022-09-30T01:19:58.244Z,6.67
2022-09-30T01:23:11.876Z,6.91
2022-09-30T01:26:03.833Z,6.95
2022-09-30T01:28:52.328Z,6.91
2022-09-30T01:31:57.393Z,6.84
2022-09-30T01:35:00.286Z,6.80
2022-09-30T01:38:08.513Z,6.84
2022-09-30T01:41:06.180Z,6.88
2022-09-30T01:44:13.622Z,6.88
2022-09-30T01:47:07.304Z,6.85
2022-09-30T01:50:07.662Z,6.72
2022-09-30T01:53:29.164Z,6.95
2022-09-30T01:56:28.982Z,7.01
2022-09-30T01:59:25.597Z,6.97
2022-09-30T02:02:21.814Z,7.07
2022-09-30T02:05:12.499Z,7.13
2022-09-30T02:08:01.215Z,7.10
2022-09-30T02:10:56.339Z,7.04
2022-09-30T02:13:49.353Z,7.15
2022-09-30T02:16:44.182Z,7.18
2022-09-30T02:19:33.450Z,7.18
2022-09-30T02:22:21.468Z,7.15
2022-09-30T02:25:09.681Z,7.12
2022-09-30T02:27:58.632Z,6.98
2022-09-30T02:30:48.225Z,6.95
2022-09-30T02:33:34.345Z,7.15
2022-09-30T02:36:30.186Z,7.16
2022-09-30T02:39:41.068Z,7.15
2022-09-30T02:42:31.109Z,7.07
2022-09-30T02:45:20.755Z,7.05
2022-09-30T02:48:10.600Z,7.10
2022-09-30T02:51:06.696Z,7.12
2022-09-30T02:53:58.386Z,7.05
2022-09-30T02:57:18.773Z,7.17
2022-09-30T03:00:09.044Z,7.12
2022-09-30T03:03:02.251Z,7.13
2022-09-30T03:05:49.401Z,7.23
2022-09-30T03:08:35.353Z,7.31
2022-09-30T03:11:26.985Z,7.26
2022-09-30T03:14:15.341Z,7.31
2022-09-30T03:17:24.553Z,7.28
2022-09-30T03:20:31.176Z,7.12
2022-09-30T03:23:36.311Z,7.17
2022-09-30T03:26:42.148Z,7.27
2022-09-30T03:30:09.846Z,7.36
2022-09-30T03:33:10.216Z,7.40
2022-09-30T03:35:58.684Z,7.47
2022-09-30T03:38:56.661Z,7.34
2022-09-30T03:41:42.216Z,7.48
2022-09-30T03:44:45.498Z,7.43
2022-09-30T03:47:34.320Z,7.32
2022-09-30T03:50:22.045Z,7.37
2022-09-30T03:53:15.367Z,7.24
2022-09-30T03:56:01.278Z,7.18
2022-09-30T03:58:47.287Z,7.00
2022-09-30T04:01:33.211Z,6.94
2022-09-30T04:04:19.336Z,6.98
2022-09-30T04:07:04.614Z,6.90
2022-09-30T04:09:50.808Z,7.05
2022-09-30T04:12:36.719Z,6.89
2022-09-30T04:15:22.357Z,7.01
2022-09-30T04:18:07.927Z,7.20
2022-09-30T04:20:54.106Z,7.29
2022-09-30T04:23:41.596Z,7.34
2022-09-30T04:26:27.607Z,7.47
2022-09-30T04:29:13.304Z,7.56
2022-09-30T04:31:59.230Z,7.50
2022-09-30T04:34:44.517Z,7.43
2022-09-30T04:37:30.556Z,7.61
2022-09-30T04:40:17.090Z,7.54
2022-09-30T04:43:03.386Z,7.70
2022-09-30T04:45:50.157Z,7.56
2022-09-30T04:48:35.954Z,7.69
2022-09-30T04:51:21.831Z,7.72
2022-09-30T04:54:07.455Z,7.61
2022-09-30T04:56:53.125Z,7.64
2022-09-30T04:59:38.857Z,7.75
2022-09-30T05:02:24.714Z,7.42
2022-09-30T05:05:10.447Z,7.55
2022-09-30T05:08:06.047Z,7.54
2022-09-30T05:10:59.500Z,7.42
2022-09-30T05:13:45.458Z,7.40
2022-09-30T05:16:31.169Z,7.43
2022-09-30T05:19:17.902Z,7.51
2022-09-30T05:22:04.021Z,7.64
2022-09-30T05:24:50.309Z,7.69
2022-09-30T05:27:36.264Z,7.47
2022-09-30T05:30:21.678Z,7.66
2022-09-30T05:33:07.959Z,7.91
2022-09-30T05:35:53.955Z,7.77
2022-09-30T05:38:40.217Z,7.96
2022-09-30T05:41:25.671Z,8.00
2022-09-30T05:44:11.886Z,8.03
2022-09-30T05:46:58.532Z,8.01
2022-09-30T05:49:45.483Z,8.19
2022-09-30T05:52:31.181Z,8.24
2022-09-30T05:55:18.120Z,8.37
2022-09-30T05:58:03.694Z,8.34
2022-09-30T06:00:50.253Z,8.58
2022-09-30T06:03:36.022Z,8.63
2022-09-30T06:06:21.683Z,8.60
2022-09-30T06:09:07.886Z,8.74
2022-09-30T06:11:58.261Z,8.98
2022-09-30T06:14:44.168Z,9.01
2022-09-30T06:17:30.032Z,9.26
2022-09-30T06:20:15.470Z,9.26
2022-09-30T06:23:01.781Z,9.44
2022-09-30T06:25:53.823Z,9.63
2022-09-30T06:28:40.237Z,9.72
2022-09-30T06:31:26.277Z,9.74
2022-09-30T06:34:12.261Z,9.77
2022-09-30T06:36:57.886Z,9.92
2022-09-30T06:39:44.494Z,10.03
2022-09-30T06:42:30.396Z,10.19
2022-09-30T06:45:29.801Z,10.36
2022-09-30T06:48:27.817Z,10.59
2022-09-30T06:51:17.091Z,10.81
2022-09-30T06:54:02.860Z,10.96
2022-09-30T06:56:49.210Z,11.04
2022-09-30T06:59:35.533Z,11.15
2022-09-30T07:02:22.224Z,11.33
2022-09-30T07:05:08.872Z,11.36
2022-09-30T07:07:55.169Z,11.60
2022-09-30T07:10:40.709Z,11.70
2022-09-30T07:13:27.441Z,11.90
2022-09-30T07:16:15.366Z,11.91
2022-09-30T07:19:02.078Z,12.09
2022-09-30T07:21:47.668Z,12.13
2022-09-30T07:24:35.008Z,12.25
2022-09-30T07:27:21.434Z,12.22
2022-09-30T07:30:10.725Z,12.14
2022-09-30T07:33:00.112Z,12.12
2022-09-30T07:35:53.320Z,12.07
2022-09-30T07:38:41.351Z,12.08
2022-09-30T07:41:29.108Z,12.04
2022-09-30T07:44:16.153Z,11.91
2022-09-30T07:47:02.708Z,11.91
2022-09-30T07:49:48.432Z,11.70
2022-09-30T07:52:34.141Z,11.68
2022-09-30T07:55:19.827Z,11.71
2022-09-30T07:58:07.780Z,11.67
2022-09-30T08:00:53.213Z,11.65
2022-09-30T08:03:42.041Z,11.80
2022-09-30T08:06:28.807Z,11.74
2022-09-30T08:09:16.506Z,11.60
2022-09-30T08:12:04.015Z,11.75
2022-09-30T08:14:50.036Z,11.80
2022-09-30T08:17:35.450Z,11.98
2022-09-30T08:20:22.636Z,11.98
2022-09-30T08:23:08.388Z,11.90
2022-09-30T08:26:00.870Z,11.91
2022-09-30T08:28:49.747Z,11.72
2022-09-30T08:31:35.669Z,11.93
2022-09-30T08:34:21.529Z,12.10
2022-09-30T08:37:09.516Z,12.15
2022-09-30T08:39:55.444Z,12.29
2022-09-30T08:43:29.634Z,12.36
2022-09-30T08:46:30.431Z,12.44
2022-09-30T08:49:42.652Z,12.47
2022-09-30T08:52:45.001Z,12.38
2022-09-30T08:55:54.784Z,12.44
2022-09-30T08:58:43.985Z,12.44
2022-09-30T09:01:34.794Z,12.48
2022-09-30T09:04:20.692Z,12.45
2022-09-30T09:07:31.173Z,12.62
2022-09-30T09:10:41.320Z,12.66
2022-09-30T09:13:39.470Z,12.60
2022-09-30T09:16:30.617Z,12.81
2022-09-30T09:19:18.267Z,12.80
2022-09-30T09:22:04.035Z,12.83
2022-09-30T09:24:51.101Z,12.98
2022-09-30T09:27:56.179Z,12.94
2022-09-30T09:30:46.228Z,13.01
2022-09-30T09:33:35.886Z,12.98
2022-09-30T09:36:49.405Z,13.16
2022-09-30T09:40:00.388Z,13.34
2022-09-30T09:43:08.487Z,13.45
2022-09-30T09:46:03.314Z,13.67
2022-09-30T09:49:11.003Z,13.82
2022-09-30T09:52:13.001Z,14.12
2022-09-30T09:55:01.108Z,14.24
2022-09-30T09:57:46.686Z,14.11
2022-09-30T10:00:48.217Z,14.29
2022-09-30T10:03:34.302Z,14.35
2022-09-30T10:06:20.169Z,14.45
2022-09-30T10:09:05.873Z,14.55
2022-09-30T10:12:15.379Z,14.62
2022-09-30T10:15:14.518Z,14.71
2022-09-30T10:18:01.192Z,14.67
2022-09-30T10:20:52.902Z,14.90
2022-09-30T10:23:40.427Z,14.79
2022-09-30T10:29:33.878Z,14.91
2022-09-30T10:32:19.852Z,14.79
2022-09-30T10:35:23.833Z,14.87
2022-09-30T10:38:12.462Z,14.92
2022-09-30T10:40:58.734Z,15.10
2022-09-30T10:43:47.930Z,14.86
2022-09-30T10:46:36.380Z,14.96
2022-09-30T10:49:25.816Z,14.89
2022-09-30T10:52:22.797Z,14.71
2022-09-30T10:55:29.209Z,14.76
2022-09-30T10:58:27.098Z,14.84
2022-09-30T11:01:15.659Z,14.81
2022-09-30T11:04:33.864Z,14.78
2022-09-30T11:07:30.287Z,14.66
2022-09-30T11:10:33.674Z,14.56
2022-09-30T11:13:30.126Z,14.69
2022-09-30T11:16:29.980Z,14.63
2022-09-30T11:19:28.915Z,14.71
2022-09-30T11:22:14.758Z,14.78
2022-09-30T11:25:00.616Z,14.67
2022-09-30T11:27:47.856Z,14.95
2022-09-30T11:30:45.226Z,14.98
2022-09-30T11:33:50.715Z,15.09
2022-09-30T11:37:08.399Z,15.09
2022-09-30T11:40:02.623Z,15.15
2022-09-30T11:43:15.490Z,15.22
2022-09-30T11:46:17.731Z,15.28
2022-09-30T11:49:25.654Z,15.27
2022-09-30T11:52:30.579Z,15.25
2022-09-30T11:55:47.275Z,15.23
2022-09-30T11:58:53.972Z,15.20
2022-09-30T12:01:45.729Z,15.29
2022-09-30T12:04:36.155Z,15.39
2022-09-30T12:07:26.311Z,15.42
2022-09-30T12:10:28.760Z,15.40
2022-09-30T12:13:18.574Z,15.35
2022-09-30T12:16:15.986Z,15.31
2022-09-30T12:19:20.716Z,15.25
2022-09-30T12:22:18.613Z,15.24
2022-09-30T12:25:13.733Z,15.33
2022-09-30T12:28:25.050Z,15.33
2022-09-30T12:31:24.664Z,15.25
2022-09-30T12:34:48.545Z,15.19
2022-09-30T12:37:52.612Z,15.16
2022-09-30T12:40:56.366Z,14.99
2022-09-30T12:43:56.710Z,15.02
2022-09-30T12:46:59.513Z,15.08
2022-09-30T12:49:46.858Z,15.03
2022-09-30T12:52:34.025Z,14.94
2022-09-30T12:55:22.519Z,15.01
2022-09-30T12:58:26.191Z,14.91
2022-09-30T13:01:19.055Z,14.89
2022-09-30T13:04:04.981Z,14.87
2022-09-30T13:06:50.567Z,14.83
2022-09-30T13:09:56.168Z,14.85
2022-09-30T13:12:46.884Z,14.76
2022-09-30T13:15:32.744Z,14.85
2022-09-30T13:18:21.436Z,14.79
2022-09-30T13:21:08.518Z,14.76
2022-09-30T13:23:56.379Z,14.75
2022-09-30T13:26:45.611Z,14.68
2022-09-30T13:29:35.291Z,14.64
2022-09-30T13:32:33.301Z,14.55
2022-09-30T13:35:32.677Z,14.54
2022-09-30T13:38:21.882Z,14.54
2022-09-30T13:41:19.000Z,14.51
2022-09-30T13:44:17.649Z,14.42
2022-09-30T13:47:15.618Z,14.31
2022-09-30T13:50:21.351Z,14.37
2022-09-30T13:53:12.685Z,14.40
2022-09-30T13:56:00.654Z,14.41
2022-09-30T13:58:55.346Z,14.42
2022-09-30T14:01:47.309Z,14.36
2022-09-30T14:05:06.544Z,14.26
2022-09-30T14:08:14.299Z,14.25
2022-09-30T14:11:37.818Z,14.22
2022-09-30T14:15:02.414Z,14.20
2022-09-30T14:17:57.399Z,14.17
2022-09-30T14:21:21.512Z,14.16
2022-09-30T14:24:17.406Z,14.07
2022-09-30T14:27:19.763Z,14.12
2022-09-30T14:30:27.291Z,14.06
2022-09-30T14:33:25.580Z,13.90
2022-09-30T14:36:14.160Z,13.95
2022-09-30T14:39:00.842Z,13.85
2022-09-30T14:41:50.614Z,13.96
2022-09-30T14:44:37.037Z,13.79
2022-09-30T14:47:26.101Z,13.78
2022-09-30T14:50:19.621Z,13.82
2022-09-30T14:53:05.255Z,13.81
2022-09-30T14:55:51.647Z,13.72
2022-09-30T14:58:42.495Z,13.82
2022-09-30T15:01:31.101Z,13.69
2022-09-30T15:04:23.919Z,13.66
2022-09-30T15:07:11.687Z,13.74
2022-09-30T15:10:01.778Z,13.58
2022-09-30T15:12:50.354Z,13.61
2022-09-30T15:15:37.444Z,13.67
2022-09-30T15:18:24.793Z,13.58
2022-09-30T15:21:12.749Z,13.43
2022-09-30T15:24:00.689Z,13.70
2022-09-30T15:26:49.004Z,13.68
2022-09-30T15:29:34.844Z,13.85
2022-09-30T15:32:22.634Z,13.80
2022-09-30T15:35:19.256Z,13.98
2022-09-30T15:38:08.585Z,14.00
2022-09-30T15:41:14.394Z,14.04
2022-09-30T15:44:02.675Z,14.04
2022-09-30T15:47:02.312Z,13.90
2022-09-30T15:49:49.938Z,13.98
2022-09-30T15:52:37.516Z,14.03
2022-09-30T15:55:42.817Z,13.91
2022-09-30T15:58:38.748Z,14.00
2022-09-30T16:01:33.465Z,13.99
2022-09-30T16:04:19.471Z,13.98
2022-09-30T16:07:09.710Z,13.93
2022-09-30T16:09:56.934Z,13.70
2022-09-30T16:12:49.287Z,13.72
2022-09-30T16:15:38.666Z,13.56
2022-09-30T16:18:31.320Z,13.45
2022-09-30T16:21:44.601Z,13.38
2022-09-30T16:24:32.201Z,13.40
2022-09-30T16:27:29.241Z,13.27
2022-09-30T16:30:17.400Z,13.25
2022-09-30T16:33:06.127Z,13.09
2022-09-30T16:35:52.092Z,12.85
2022-09-30T16:38:38.382Z,12.70
2022-09-30T16:41:25.357Z,12.58
2022-09-30T16:44:11.686Z,12.35
2022-09-30T16:46:57.563Z,12.25
2022-09-30T16:49:46.331Z,12.10
2022-09-30T16:52:32.248Z,12.07
2022-09-30T16:55:17.851Z,11.89
2022-09-30T16:58:05.422Z,11.88
2022-09-30T17:00:51.829Z,11.71
2022-09-30T17:03:37.479Z,11.63
2022-09-30T17:06:31.220Z,11.46
2022-09-30T17:09:17.682Z,11.38
2022-09-30T17:12:03.779Z,11.33
2022-09-30T17:14:50.001Z,11.33
2022-09-30T17:17:35.835Z,11.16
2022-09-30T17:20:22.397Z,11.09
2022-09-30T17:23:08.278Z,11.11
2022-09-30T17:25:54.805Z,11.04
2022-09-30T17:28:41.296Z,11.01
2022-09-30T17:31:27.105Z,10.94
2022-09-30T17:34:13.369Z,10.82
2022-09-30T17:37:00.064Z,10.82
2022-09-30T17:39:46.881Z,10.73
2022-09-30T17:42:54.471Z,10.67
2022-09-30T17:45:46.082Z,10.70
2022-09-30T17:48:32.385Z,10.64
2022-09-30T17:51:18.393Z,10.73
2022-09-30T17:54:05.976Z,10.71
2022-09-30T17:56:52.208Z,10.67
2022-09-30T17:59:37.834Z,10.53
2022-09-30T18:02:25.264Z,10.60
2022-09-30T18:05:11.293Z,10.44
2022-09-30T18:07:57.269Z,10.50
2022-09-30T18:10:43.087Z,10.48
2022-09-30T18:13:29.466Z,10.32
2022-09-30T18:16:15.704Z,10.46
2022-09-30T18:19:04.114Z,10.46
2022-09-30T18:21:55.226Z,10.42
2022-09-30T18:25:01.024Z,10.33
2022-09-30T18:27:59.701Z,10.37
2022-09-30T18:30:47.072Z,10.34
2022-09-30T18:33:36.697Z,10.29
2022-09-30T18:36:26.388Z,10.33
2022-09-30T18:39:12.846Z,10.26
2022-09-30T18:42:00.574Z,10.23
2022-09-30T18:44:51.653Z,10.21
2022-09-30T18:47:43.068Z,10.29
2022-09-30T18:50:30.342Z,10.33
2022-09-30T18:53:18.987Z,10.30
2022-09-30T18:56:15.405Z,10.30
2022-09-30T19:01:59.814Z,10.28
2022-09-30T19:04:47.339Z,10.28
2022-09-30T19:07:39.108Z,10.24
2022-09-30T19:10:26.344Z,10.05
2022-09-30T19:13:13.103Z,10.15
2022-09-30T19:16:06.057Z,10.15
2022-09-30T19:18:52.283Z,10.07
2022-09-30T19:21:38.984Z,10.16
2022-09-30T19:24:27.486Z,10.19
2022-09-30T19:27:14.107Z,10.17
2022-09-30T19:29:59.920Z,10.03
2022-09-30T19:32:45.966Z,10.07
2022-09-30T19:35:40.129Z,10.03
2022-09-30T19:38:37.487Z,9.93
2022-09-30T19:41:24.182Z,9.91
2022-09-30T19:44:10.361Z,9.96
2022-09-30T19:46:55.945Z,9.83
2022-09-30T19:49:41.689Z,9.93
2022-09-30T19:52:28.098Z,9.84
2022-09-30T19:55:16.655Z,9.90
2022-09-30T19:58:02.988Z,9.92
2022-09-30T20:00:58.104Z,9.89
2022-09-30T20:03:44.352Z,9.88
2022-09-30T20:06:31.277Z,9.70
2022-09-30T20:09:17.038Z,9.92
2022-09-30T20:12:03.502Z,9.71
2022-09-30T20:15:07.724Z,9.94
2022-09-30T20:17:56.761Z,9.92
2022-09-30T20:20:42.894Z,9.83
2022-09-30T20:23:29.165Z,9.99
2022-09-30T20:26:16.000Z,10.03
2022-09-30T20:29:01.977Z,9.96
2022-09-30T20:31:48.270Z,10.05
2022-09-30T20:34:38.559Z,10.08
2022-09-30T20:37:24.182Z,10.07
2022-09-30T20:40:10.586Z,9.95
2022-09-30T20:43:01.459Z,9.73
2022-09-30T20:45:53.783Z,9.94
2022-09-30T20:48:39.671Z,9.92
2022-09-30T20:51:26.205Z,10.03
2022-09-30T20:54:11.929Z,9.82
2022-09-30T20:57:12.225Z,9.92
2022-09-30T20:59:59.854Z,10.01
2022-09-30T21:02:48.707Z,9.97
2022-09-30T21:05:34.487Z,9.95
2022-09-30T21:08:20.194Z,9.90
2022-09-30T21:11:07.483Z,9.86
2022-09-30T21:13:53.876Z,9.97
2022-09-30T21:16:39.285Z,9.87
2022-09-30T21:19:25.563Z,9.86
2022-09-30T21:22:11.301Z,9.95
2022-09-30T21:24:57.387Z,9.91
2022-09-30T21:27:46.207Z,9.95
2022-09-30T21:30:32.927Z,9.89
2022-09-30T21:33:22.093Z,9.97
2022-09-30T21:36:08.244Z,9.99
2022-09-30T21:38:54.983Z,10.04
2022-09-30T21:41:41.325Z,10.03
2022-09-30T21:44:26.784Z,9.99
2022-09-30T21:47:12.483Z,9.99
2022-09-30T21:49:57.930Z,9.81
2022-09-30T21:52:43.635Z,9.96
2022-09-30T21:55:29.616Z,9.86
2022-09-30T21:58:15.751Z,9.95
2022-09-30T22:01:04.941Z,9.77
2022-09-30T22:03:51.217Z,9.72
2022-09-30T22:06:36.689Z,9.82
2022-09-30T22:09:22.862Z,9.83
2022-09-30T22:12:09.007Z,9.82
2022-09-30T22:14:54.850Z,9.83
2022-09-30T22:17:40.429Z,9.80
2022-09-30T22:20:26.320Z,9.76
2022-09-30T22:23:11.912Z,9.62
2022-09-30T22:25:58.472Z,9.68
2022-09-30T22:28:48.877Z,9.61
2022-09-30T22:31:35.162Z,9.62
2022-09-30T22:34:39.812Z,9.61
2022-09-30T22:37:44.598Z,9.44
2022-09-30T22:40:30.150Z,9.39
2022-09-30T22:43:16.185Z,9.37
2022-09-30T22:46:06.287Z,9.43
2022-09-30T22:48:53.199Z,9.37
2022-09-30T22:51:39.084Z,9.46
2022-09-30T22:54:26.093Z,9.43
2022-09-30T22:57:12.794Z,9.27
2022-09-30T22:59:59.163Z,9.34
2022-09-30T23:02:45.413Z,9.27
2022-09-30T23:05:31.343Z,9.29
2022-09-30T23:08:17.369Z,9.26
2022-09-30T23:11:03.278Z,9.09
2022-09-30T23:13:49.782Z,9.14
2022-09-30T23:16:35.811Z,9.04
2022-09-30T23:19:21.376Z,8.85
2022-09-30T23:22:07.220Z,9.00
2022-09-30T23:24:53.020Z,9.02
2022-09-30T23:27:38.769Z,8.99
2022-09-30T23:30:24.943Z,8.92
2022-09-30T23:33:11.367Z,8.95
2022-09-30T23:35:59.417Z,8.81
2022-09-30T23:38:45.536Z,8.81
2022-09-30T23:41:32.427Z,8.72
2022-09-30T23:44:19.034Z,8.66
2022-09-30T23:47:19.969Z,8.69
2022-09-30T23:50:06.552Z,8.63
2022-09-30T23:52:52.338Z,8.65
2022-09-30T23:55:38.249Z,8.62
2022-09-30T23:58:24.888Z,8.68
